Time;durP1;ratioP1;P1;durP2;ratioP2;P2;SDS_P1;SDS_P2;PMS_P1;PMS_P2;Temp;Humidity;BMP_temperature;BMP_pressure;BME280_temperature;BME280_humidity;BME280_pressure;Samples;Min_cycle;Max_cycle;Signal;HPM_P1;HPM_P2
2023/04/28 00:01:35;;;;;;;13.98;8.85;;;;;;;8.99;73.79;101345.59;5102017;27;20042;-72
2023/04/28 00:04:01;;;;;;;19.35;8.88;;;;;;;8.90;74.31;101331.91;5095505;27;20098;-70
2023/04/28 00:06:27;;;;;;;15.25;8.20;;;;;;;8.86;73.81;101333.84;5056842;28;20385;-70
2023/04/28 00:08:52;;;;;;;12.45;8.35;;;;;;;8.95;73.97;101330.72;5075832;28;20114;-70
2023/04/28 00:11:18;;;;;;;14.15;8.52;;;;;;;8.91;74.49;101320.31;5094098;27;20042;-70
2023/04/28 00:13:43;;;;;;;14.40;8.43;;;;;;;8.94;73.51;101309.53;5079261;27;20040;-72
2023/04/28 00:16:09;;;;;;;12.45;8.20;;;;;;;8.92;74.09;101301.63;5097344;27;20524;-70
2023/04/28 00:18:34;;;;;;;15.68;8.75;;;;;;;8.93;73.75;101297.16;5103616;27;20032;-72
2023/04/28 00:21:00;;;;;;;19.50;8.13;;;;;;;8.93;73.88;101294.50;5098619;27;20046;-70
2023/04/28 00:23:26;;;;;;;17.17;8.55;;;;;;;8.88;73.77;101293.84;5092535;27;20044;-70
2023/04/28 00:25:52;;;;;;;18.83;8.70;;;;;;;8.91;74.24;101299.91;5093892;27;20040;-70
2023/04/28 00:28:17;;;;;;;14.65;7.93;;;;;;;8.99;74.86;101305.72;5080903;27;20059;-70
2023/04/28 00:30:43;;;;;;;11.50;7.88;;;;;;;8.96;75.33;101305.84;5090998;27;20036;-70
2023/04/28 00:33:09;;;;;;;15.13;7.88;;;;;;;9.06;76.13;101299.13;5102542;27;20036;-70
2023/04/28 00:35:34;;;;;;;15.40;7.72;;;;;;;8.93;76.53;101284.72;5075010;27;20040;-70
2023/04/28 00:38:00;;;;;;;13.75;7.60;;;;;;;8.99;75.76;101283.56;5074758;27;20953;-72
2023/04/28 00:40:52;;;;;;;13.95;8.55;;;;;;;8.88;76.48;101294.72;5073532;28;20960;-72
2023/04/28 00:43:17;;;;;;;18.93;8.30;;;;;;;8.69;78.05;101284.13;5090026;27;20351;-69
2023/04/28 00:45:43;;;;;;;14.07;8.20;;;;;;;8.74;78.15;101287.44;5089107;27;20065;-70
2023/04/28 00:48:09;;;;;;;14.77;7.75;;;;;;;8.50;78.94;101277.97;5096253;27;20597;-72
2023/04/28 00:50:35;;;;;;;13.98;8.57;;;;;;;8.53;78.44;101276.03;5094400;27;20048;-72
2023/04/28 00:53:01;;;;;;;14.23;8.20;;;;;;;8.54;77.99;101269.78;5077323;27;20319;-70
2023/04/28 00:55:32;;;;;;;17.85;7.85;;;;;;;8.57;78.28;101269.63;5057993;28;20154;-71
2023/04/28 00:57:58;;;;;;;13.38;7.65;;;;;;;8.63;77.90;101264.94;5071586;27;20466;-71
2023/04/28 01:00:24;;;;;;;9.75;7.35;;;;;;;8.69;77.38;101256.69;5074922;27;20078;-70
2023/04/28 01:02:53;;;;;;;15.18;7.78;;;;;;;8.72;76.82;101256.53;5093155;27;20106;-70
2023/04/28 01:05:20;;;;;;;17.52;8.27;;;;;;;8.79;78.11;101247.31;5074244;28;20197;-71
2023/04/28 01:07:45;;;;;;;17.95;8.38;;;;;;;8.82;77.61;101239.19;5079964;27;20289;-72
2023/04/28 01:10:11;;;;;;;14.30;7.22;;;;;;;8.81;77.35;101233.00;5091219;27;20050;-72
2023/04/28 01:12:36;;;;;;;12.40;7.38;;;;;;;8.90;76.76;101225.50;5080146;28;20082;-71
2023/04/28 01:15:03;;;;;;;13.70;7.38;;;;;;;8.87;76.76;101226.50;5073638;27;20036;-72
2023/04/28 01:17:29;;;;;;;12.60;7.18;;;;;;;9.05;76.11;101230.06;5076435;27;20151;-70
2023/04/28 01:19:55;;;;;;;12.40;7.93;;;;;;;9.16;76.17;101224.19;5070096;27;20461;-71
2023/04/28 01:22:21;;;;;;;10.27;6.35;;;;;;;9.08;76.16;101222.75;5098402;27;20235;-71
2023/04/28 01:24:46;;;;;;;12.98;7.28;;;;;;;9.14;75.21;101218.94;5091292;27;20612;-72
2023/04/28 01:27:13;;;;;;;9.35;6.70;;;;;;;9.05;72.82;101222.94;5086438;27;20028;-73
2023/04/28 01:29:40;;;;;;;9.90;6.22;;;;;;;9.15;73.23;101222.47;5088645;27;20032;-73
2023/04/28 01:32:06;;;;;;;11.07;6.10;;;;;;;9.18;72.50;101214.31;5078607;27;20035;-72
2023/04/28 01:34:32;;;;;;;10.77;6.75;;;;;;;9.22;72.64;101216.75;5055589;27;20031;-72
2023/04/28 01:36:58;;;;;;;14.18;6.35;;;;;;;9.29;71.40;101217.31;5077267;28;20043;-73
2023/04/28 01:39:24;;;;;;;10.40;6.88;;;;;;;9.35;72.13;101222.28;5059855;27;20425;-73
2023/04/28 01:41:49;;;;;;;12.48;6.85;;;;;;;9.27;72.06;101225.34;5071512;27;20028;-71
2023/04/28 01:44:15;;;;;;;14.52;6.90;;;;;;;8.95;80.34;101234.13;5098201;27;20438;-71
2023/04/28 01:46:41;;;;;;;12.65;7.80;;;;;;;8.74;90.32;101239.56;5074108;27;20032;-71
2023/04/28 01:49:06;;;;;;;19.58;8.63;;;;;;;8.68;97.08;101236.34;5078486;27;20093;-71
2023/04/28 01:51:33;;;;;;;16.75;8.18;;;;;;;8.45;100.00;101230.34;5075172;27;20035;-72
2023/04/28 01:54:00;;;;;;;15.13;8.52;;;;;;;8.32;100.00;101223.88;5069611;27;20151;-72
2023/04/28 01:56:25;;;;;;;14.45;8.30;;;;;;;8.25;100.00;101209.16;5072258;28;20047;-72
2023/04/28 01:58:53;;;;;;;13.63;8.13;;;;;;;8.34;100.00;101213.19;5080161;27;20103;-72
2023/04/28 02:01:19;;;;;;;15.07;8.00;;;;;;;8.32;100.00;101216.75;5072632;28;20032;-72
2023/04/28 02:03:45;;;;;;;12.77;7.43;;;;;;;8.22;100.00;101211.97;5081181;27;20043;-71
2023/04/28 02:06:10;;;;;;;11.40;7.05;;;;;;;8.07;100.00;101212.69;5073700;27;22230;-72
2023/04/28 02:08:36;;;;;;;10.90;7.60;;;;;;;8.03;100.00;101220.81;5071356;27;20028;-71
2023/04/28 02:11:03;;;;;;;14.07;7.80;;;;;;;8.08;100.00;101217.91;5073748;27;20036;-72
2023/04/28 02:13:28;;;;;;;13.15;8.48;;;;;;;8.09;100.00;101209.03;5085144;27;20032;-72
2023/04/28 02:15:54;;;;;;;17.02;8.43;;;;;;;8.08;100.00;101204.63;5056995;27;20817;-71
2023/04/28 02:18:20;;;;;;;13.75;7.72;;;;;;;8.08;100.00;101194.00;5074239;27;20031;-71
2023/04/28 02:20:45;;;;;;;11.07;7.95;;;;;;;8.04;100.00;101197.78;5101262;27;20028;-71
2023/04/28 02:23:11;;;;;;;18.35;9.45;;;;;;;8.07;100.00;101186.97;5070898;28;20851;-71
2023/04/28 02:25:37;;;;;;;15.30;8.40;;;;;;;8.22;100.00;101177.41;5062328;28;20090;-71
2023/04/28 02:28:03;;;;;;;14.75;9.18;;;;;;;8.21;100.00;101181.00;5079711;27;20110;-71
2023/04/28 02:30:28;;;;;;;11.50;7.63;;;;;;;8.28;100.00;101183.31;5090766;27;20032;-71
2023/04/28 02:32:55;;;;;;;21.30;8.50;;;;;;;8.31;100.00;101188.47;5094481;27;20067;-71
2023/04/28 02:35:20;;;;;;;14.88;8.50;;;;;;;8.37;100.00;101183.81;5104154;27;20035;-71
2023/04/28 02:37:46;;;;;;;12.63;8.32;;;;;;;8.35;100.00;101183.88;5081864;27;20032;-71
2023/04/28 02:40:12;;;;;;;15.80;8.35;;;;;;;8.20;100.00;101180.16;5102574;27;20058;-71
2023/04/28 02:42:38;;;;;;;14.27;8.63;;;;;;;8.27;100.00;101178.91;5077145;28;20938;-70
2023/04/28 02:45:04;;;;;;;17.80;8.93;;;;;;;8.30;100.00;101177.91;5096707;27;20530;-73
2023/04/28 02:47:30;;;;;;;17.00;9.23;;;;;;;8.21;100.00;101173.03;5064533;27;20029;-73
2023/04/28 02:49:55;;;;;;;15.23;9.07;;;;;;;8.32;100.00;101165.41;5076869;27;20549;-72
2023/04/28 02:52:21;;;;;;;16.13;8.63;;;;;;;8.40;100.00;101170.41;5095165;27;20038;-72
2023/04/28 02:54:47;;;;;;;16.05;8.10;;;;;;;8.54;100.00;101167.94;5096235;27;20038;-72
2023/04/28 02:57:14;;;;;;;14.35;9.00;;;;;;;8.57;100.00;101162.44;5083895;27;20035;-72
2023/04/28 02:59:40;;;;;;;20.75;9.00;;;;;;;8.51;100.00;101160.09;5098095;27;20044;-72
2023/04/28 03:02:07;;;;;;;13.75;8.63;;;;;;;8.35;100.00;101154.66;5061004;27;20036;-72
2023/04/28 03:04:33;;;;;;;14.38;8.18;;;;;;;8.38;100.00;101151.84;5078020;27;20044;-71
2023/04/28 03:06:59;;;;;;;15.23;9.27;;;;;;;8.42;100.00;101157.88;5097985;27;20081;-72
2023/04/28 03:09:24;;;;;;;14.80;8.52;;;;;;;8.42;100.00;101147.25;5075815;27;20038;-70
2023/04/28 03:11:50;;;;;;;13.85;8.98;;;;;;;8.28;100.00;101137.25;5083271;27;20973;-72
2023/04/28 03:14:15;;;;;;;16.45;8.98;;;;;;;8.37;100.00;101125.38;5089604;28;20046;-73
2023/04/28 03:16:42;;;;;;;14.57;9.52;;;;;;;8.29;100.00;101112.44;5095143;27;20280;-72
2023/04/28 03:19:08;;;;;;;16.40;9.60;;;;;;;8.07;100.00;101112.63;5066164;27;20020;-72
2023/04/28 03:21:33;;;;;;;15.85;8.82;;;;;;;8.14;100.00;101105.22;5096353;27;20201;-71
2023/04/28 03:23:59;;;;;;;14.30;9.20;;;;;;;8.28;100.00;101108.03;5100686;27;20042;-73
2023/04/28 03:26:25;;;;;;;16.20;8.52;;;;;;;8.33;100.00;101092.72;5075287;27;20043;-72
2023/04/28 03:28:51;;;;;;;20.38;8.82;;;;;;;8.44;100.00;101100.22;5078870;28;20063;-72
2023/04/28 03:31:17;;;;;;;14.30;8.82;;;;;;;8.45;100.00;101088.66;5103890;27;20035;-71
2023/04/28 03:33:46;;;;;;;16.85;9.18;;;;;;;8.50;100.00;101081.31;5097569;27;20035;-72
2023/04/28 03:36:14;;;;;;;13.73;8.45;;;;;;;8.60;100.00;101084.34;5080127;27;20024;-70
2023/04/28 03:38:39;;;;;;;13.70;8.13;;;;;;;8.49;100.00;101084.91;5080753;28;20032;-72
2023/04/28 03:41:05;;;;;;;14.93;8.50;;;;;;;8.53;100.00;101091.75;5077073;27;20652;-71
2023/04/28 03:43:55;;;;;;;15.18;7.97;;;;;;;8.50;96.36;101084.81;5047864;28;21113;-72
2023/04/28 03:46:30;;;;;;;13.30;8.10;;;;;;;8.50;97.97;101076.84;5048597;28;20136;-73
2023/04/28 03:48:56;;;;;;;13.30;9.10;;;;;;;8.61;97.29;101076.28;5031889;28;20103;-72
2023/04/28 03:51:21;;;;;;;13.45;8.48;;;;;;;8.71;97.22;101079.34;5049470;28;20838;-70
2023/04/28 03:53:47;;;;;;;16.08;8.77;;;;;;;8.66;98.10;101078.72;5012868;28;20116;-72
2023/04/28 03:56:12;;;;;;;14.23;8.30;;;;;;;8.58;98.91;101089.72;5030726;28;20076;-72
2023/04/28 03:58:38;;;;;;;14.38;9.15;;;;;;;8.63;96.91;101084.19;5048404;28;20049;-72
2023/04/28 04:01:04;;;;;;;17.63;9.02;;;;;;;8.63;96.17;101078.88;5024762;28;20049;-72
2023/04/28 04:03:30;;;;;;;15.45;9.00;;;;;;;8.70;97.84;101078.47;5030980;28;20171;-73
2023/04/28 04:05:56;;;;;;;16.83;8.80;;;;;;;8.63;98.38;101079.72;5031207;28;20048;-72
2023/04/28 04:08:22;;;;;;;16.38;9.13;;;;;;;8.90;96.69;101077.44;5047144;28;20043;-71
2023/04/28 04:10:47;;;;;;;14.25;8.00;;;;;;;9.03;96.96;101078.50;5031588;28;20894;-71
2023/04/28 04:13:13;;;;;;;14.23;8.35;;;;;;;9.02;96.96;101067.94;5030998;28;20039;-71
2023/04/28 04:15:40;;;;;;;16.05;8.45;;;;;;;8.88;96.21;101067.81;5048374;28;20076;-70
2023/04/28 04:18:07;;;;;;;14.15;9.20;;;;;;;8.71;97.60;101063.38;5028802;28;20033;-72
2023/04/28 04:20:56;;;;;;;17.55;8.98;;;;;;;8.78;97.86;101062.13;5051511;28;20079;-71
2023/04/28 04:23:22;;;;;;;16.50;10.10;;;;;;;8.67;97.25;101061.81;5075111;27;20143;-71
2023/04/28 04:25:48;;;;;;;15.15;8.98;;;;;;;8.83;98.33;101057.41;5076026;28;20032;-71
2023/04/28 04:28:14;;;;;;;20.83;9.65;;;;;;;8.75;98.57;101057.84;5072015;28;20141;-72
2023/04/28 04:30:42;;;;;;;22.52;10.15;;;;;;;8.87;97.77;101055.47;5085084;27;20028;-71
2023/04/28 04:33:08;;;;;;;21.65;10.32;;;;;;;8.82;98.31;101061.88;5076056;28;20032;-72
2023/04/28 04:35:34;;;;;;;16.88;10.27;;;;;;;8.85;98.57;101054.69;5080304;27;20081;-72
2023/04/28 04:38:00;;;;;;;19.15;10.43;;;;;;;8.77;99.44;101055.09;5075486;27;20582;-72
2023/04/28 04:40:26;;;;;;;19.30;11.05;;;;;;;8.68;100.00;101056.41;5074253;27;20185;-70
2023/04/28 04:42:51;;;;;;;20.85;10.93;;;;;;;8.73;100.00;101043.75;5097799;27;20020;-72
2023/04/28 04:45:19;;;;;;;16.30;10.25;;;;;;;8.80;100.00;101038.97;5079033;27;20055;-69
2023/04/28 04:47:45;;;;;;;16.90;10.10;;;;;;;8.85;100.00;101034.28;5095418;27;20035;-72
2023/04/28 04:50:11;;;;;;;23.00;11.15;;;;;;;8.85;100.00;101036.09;5039768;28;20045;-72
2023/04/28 04:52:38;;;;;;;17.13;11.30;;;;;;;9.04;100.00;101031.50;5047068;28;20036;-71
2023/04/28 04:55:04;;;;;;;24.60;10.93;;;;;;;9.12;100.00;101028.41;5054247;28;20033;-71
2023/04/28 04:57:32;;;;;;;20.45;11.95;;;;;;;9.05;100.00;101027.91;5034154;28;20969;-71
2023/04/28 05:00:11;;;;;;;17.45;10.75;;;;;;;9.17;100.00;101029.03;5056724;28;20036;-71
2023/04/28 05:02:37;;;;;;;19.50;10.82;;;;;;;9.20;100.00;101035.03;5065306;28;20119;-71
2023/04/28 05:05:05;;;;;;;21.73;12.63;;;;;;;9.14;100.00;101034.53;5053710;28;20218;-71
2023/04/28 05:07:30;;;;;;;23.63;11.75;;;;;;;9.11;100.00;101037.34;5053952;28;20067;-71
2023/04/28 05:09:56;;;;;;;18.55;12.02;;;;;;;9.22;100.00;101034.94;5060688;28;20044;-72
2023/04/28 05:12:22;;;;;;;24.35;12.73;;;;;;;9.20;100.00;101031.53;5047906;28;20029;-72
2023/04/28 05:14:48;;;;;;;25.45;13.55;;;;;;;9.25;100.00;101030.31;5051994;28;20119;-72
2023/04/28 05:17:14;;;;;;;22.77;13.40;;;;;;;9.12;100.00;101028.41;5051092;28;20147;-70
2023/04/28 05:19:40;;;;;;;23.08;13.77;;;;;;;9.17;100.00;101021.91;5051164;28;20608;-72
2023/04/28 05:22:06;;;;;;;26.98;13.65;;;;;;;9.08;100.00;101015.25;5050932;28;20033;-72
2023/04/28 05:24:35;;;;;;;26.35;13.10;;;;;;;9.15;100.00;101017.63;5034759;28;20033;-72
2023/04/28 05:27:02;;;;;;;24.77;14.60;;;;;;;9.26;100.00;101017.88;5050881;28;20037;-72
2023/04/28 05:29:27;;;;;;;22.30;13.93;;;;;;;9.20;100.00;101003.13;5050522;28;20130;-72
2023/04/28 05:31:53;;;;;;;30.45;15.70;;;;;;;9.37;100.00;101003.97;5057837;28;20033;-72
2023/04/28 05:34:20;;;;;;;31.70;16.83;;;;;;;9.24;100.00;101007.31;5052887;28;20029;-72
2023/04/28 05:36:46;;;;;;;28.58;16.85;;;;;;;9.31;100.00;100999.84;5050329;28;20833;-72
2023/04/28 05:39:12;;;;;;;31.38;17.27;;;;;;;9.33;100.00;101004.13;5036941;28;20336;-72
2023/04/28 05:41:40;;;;;;;31.20;16.88;;;;;;;9.19;100.00;100993.41;5055452;28;20037;-71
2023/04/28 05:44:05;;;;;;;45.15;18.73;;;;;;;9.31;100.00;100986.56;5055801;28;20037;-72
2023/04/28 05:46:32;;;;;;;30.60;17.83;;;;;;;9.53;100.00;100984.38;5046942;28;20033;-71
2023/04/28 05:48:58;;;;;;;34.08;19.13;;;;;;;9.28;100.00;100992.03;5050216;27;20094;-72
2023/04/28 05:51:26;;;;;;;31.95;18.95;;;;;;;9.42;100.00;100996.59;5063655;27;20051;-71
2023/04/28 05:53:54;;;;;;;34.35;20.02;;;;;;;9.42;100.00;100992.13;5069213;27;20081;-71
2023/04/28 05:56:22;;;;;;;37.50;20.63;;;;;;;9.43;100.00;100987.66;5074000;27;20048;-71
2023/04/28 05:58:49;;;;;;;41.05;19.63;;;;;;;9.55;100.00;100995.81;5074828;27;20065;-71
2023/04/28 06:01:16;;;;;;;36.53;20.33;;;;;;;9.55;100.00;100992.31;5102648;27;20113;-71
2023/04/28 06:03:41;;;;;;;39.83;20.08;;;;;;;9.80;100.00;100987.28;5096247;27;20135;-71
2023/04/28 06:06:08;;;;;;;39.17;19.58;;;;;;;9.77;100.00;100998.09;5090968;27;20078;-71
2023/04/28 06:08:34;;;;;;;34.28;19.83;;;;;;;9.81;100.00;100998.78;5074559;27;20147;-72
2023/04/28 06:11:03;;;;;;;32.97;19.67;;;;;;;9.86;100.00;100999.38;5083903;27;20105;-72
2023/04/28 06:13:28;;;;;;;36.88;20.25;;;;;;;10.03;100.00;101001.91;5096942;27;20409;-72
2023/04/28 06:15:54;;;;;;;47.67;21.45;;;;;;;9.90;100.00;101005.41;5080950;28;20036;-72
2023/04/28 06:18:20;;;;;;;35.13;21.13;;;;;;;9.97;100.00;100993.44;5095325;27;20032;-72
2023/04/28 06:20:46;;;;;;;34.95;21.58;;;;;;;9.91;100.00;100999.97;5075245;27;20097;-71
2023/04/28 06:23:12;;;;;;;43.10;23.77;;;;;;;10.02;100.00;101013.53;5074120;27;20582;-72
2023/04/28 06:25:43;;;;;;;44.42;23.63;;;;;;;9.78;100.00;101012.28;5079014;27;20028;-72
2023/04/28 06:28:08;;;;;;;42.03;24.08;;;;;;;9.81;100.00;101022.75;5075876;27;20169;-71
2023/04/28 06:30:34;;;;;;;39.28;24.80;;;;;;;9.78;100.00;101037.09;5093943;27;20049;-71
2023/04/28 06:33:02;;;;;;;43.67;23.75;;;;;;;9.88;100.00;101036.56;5093862;27;20131;-72
2023/04/28 06:35:28;;;;;;;38.60;24.65;;;;;;;9.96;100.00;101037.88;5094503;27;20032;-71
2023/04/28 06:37:53;;;;;;;42.80;24.17;;;;;;;9.88;100.00;101039.25;5086354;27;20040;-72
2023/04/28 06:40:20;;;;;;;46.45;25.38;;;;;;;9.93;100.00;101027.38;5077645;27;20035;-71
2023/04/28 06:42:56;;;;;;;49.85;26.40;;;;;;;9.74;100.00;101013.38;5077110;27;21121;-71
2023/04/28 06:45:29;;;;;;;48.40;27.65;;;;;;;9.73;100.00;101011.69;5078001;27;20986;-71
2023/04/28 06:47:55;;;;;;;44.85;26.17;;;;;;;9.94;100.00;101025.56;5076084;28;20051;-71
2023/04/28 06:50:22;;;;;;;40.53;25.50;;;;;;;10.10;100.00;101016.63;5081758;27;20044;-72
2023/04/28 06:52:47;;;;;;;44.78;26.48;;;;;;;10.25;100.00;101016.69;5095581;27;20533;-71
2023/04/28 06:55:16;;;;;;;47.75;26.92;;;;;;;10.23;100.00;101016.72;5093850;27;20028;-71
2023/04/28 06:57:43;;;;;;;43.88;25.60;;;;;;;10.00;100.00;101025.22;5076821;27;20035;-71
2023/04/28 07:00:10;;;;;;;42.10;25.65;;;;;;;10.09;100.00;101016.69;5103801;27;20052;-71
2023/04/28 07:02:36;;;;;;;53.53;27.95;;;;;;;10.18;100.00;101010.81;5085610;27;20532;-71
2023/04/28 07:05:03;;;;;;;44.17;27.42;;;;;;;10.32;100.00;101013.56;5066480;27;20039;-72
2023/04/28 07:07:28;;;;;;;49.22;28.13;;;;;;;10.46;100.00;101003.88;5065138;28;20039;-71
2023/04/28 07:09:55;;;;;;;43.97;27.75;;;;;;;10.45;100.00;101011.03;5101184;27;20043;-72
2023/04/28 07:12:21;;;;;;;44.80;27.88;;;;;;;10.77;100.00;100993.06;5091911;27;20059;-71
2023/04/28 07:14:47;;;;;;;43.95;27.65;;;;;;;10.89;100.00;100999.44;5094697;27;20299;-72
2023/04/28 07:17:12;;;;;;;51.85;28.88;;;;;;;10.94;100.00;100997.34;5100824;27;20040;-72
2023/04/28 07:19:38;;;;;;;43.58;27.25;;;;;;;11.29;100.00;100995.09;5094560;27;21005;-72
2023/04/28 07:22:04;;;;;;;43.28;27.38;;;;;;;11.38;100.00;100977.66;5094121;27;20039;-69
2023/04/28 07:24:30;;;;;;;44.67;25.73;;;;;;;11.61;100.00;100990.38;5102312;27;20539;-71
2023/04/28 07:26:56;;;;;;;41.80;26.13;;;;;;;11.51;100.00;100991.06;5093367;27;20091;-72
2023/04/28 07:29:22;;;;;;;38.95;24.42;;;;;;;11.80;100.00;100984.69;5097046;27;20040;-72
2023/04/28 07:31:48;;;;;;;40.42;24.63;;;;;;;11.68;100.00;100996.16;5081441;27;20688;-71
2023/04/28 07:34:14;;;;;;;42.72;24.13;;;;;;;11.97;100.00;100980.91;5100056;27;20449;-72
2023/04/28 07:36:40;;;;;;;45.25;24.55;;;;;;;11.86;100.00;100992.31;5093325;27;21107;-72
2023/04/28 07:39:06;;;;;;;43.03;25.08;;;;;;;11.66;100.00;100995.41;5102221;27;20674;-71
2023/04/28 07:41:38;;;;;;;37.33;23.08;;;;;;;11.72;100.00;100989.66;5101463;27;20039;-71
2023/04/28 07:44:09;;;;;;;42.95;25.95;;;;;;;11.63;100.00;100991.13;5095610;27;20089;-72
2023/04/28 07:46:35;;;;;;;40.03;24.67;;;;;;;11.57;100.00;100982.66;5096929;27;20576;-72
2023/04/28 07:49:01;;;;;;;40.88;24.23;;;;;;;11.30;100.00;100985.31;5070933;28;20781;-69
2023/04/28 07:51:27;;;;;;;42.90;22.83;;;;;;;11.19;100.00;100988.63;5099573;27;20068;-72
2023/04/28 07:53:53;;;;;;;42.00;25.40;;;;;;;11.20;100.00;100989.53;5097883;27;20225;-71
2023/04/28 07:56:20;;;;;;;40.42;24.67;;;;;;;11.27;100.00;100985.50;5072983;27;20072;-71
2023/04/28 07:58:46;;;;;;;42.03;25.60;;;;;;;11.43;100.00;100985.38;5091581;27;20087;-71
2023/04/28 08:01:12;;;;;;;40.80;24.13;;;;;;;11.65;100.00;100981.22;5097852;27;20492;-72
2023/04/28 08:03:37;;;;;;;42.85;24.52;;;;;;;11.59;100.00;100986.94;5072996;27;20051;-72
2023/04/28 08:06:03;;;;;;;41.28;26.38;;;;;;;11.60;100.00;100983.31;5072821;28;20043;-72
2023/04/28 08:08:29;;;;;;;40.38;24.10;;;;;;;11.73;100.00;100987.84;5092765;27;20031;-72
2023/04/28 08:10:56;;;;;;;41.17;25.20;;;;;;;11.97;100.00;100970.22;5092875;27;20020;-71
2023/04/28 08:13:21;;;;;;;36.55;24.40;;;;;;;11.76;100.00;100971.63;5097302;27;20036;-72
2023/04/28 08:15:48;;;;;;;41.20;25.38;;;;;;;11.88;100.00;100973.50;5085070;27;20417;-72
2023/04/28 08:18:14;;;;;;;43.78;25.27;;;;;;;11.93;100.00;100961.53;5103862;27;20082;-72
2023/04/28 08:20:40;;;;;;;38.80;24.38;;;;;;;12.28;100.00;100966.31;5102294;27;20039;-71
2023/04/28 08:23:07;;;;;;;41.13;25.27;;;;;;;12.43;100.00;100964.41;5101289;27;20097;-71
2023/04/28 08:25:32;;;;;;;41.53;24.08;;;;;;;12.64;100.00;100970.94;5098473;27;20039;-72
2023/04/28 08:27:58;;;;;;;44.60;24.15;;;;;;;12.18;100.00;100968.75;5081005;27;20036;-72
2023/04/28 08:30:24;;;;;;;38.65;24.88;;;;;;;12.36;100.00;100960.47;5098294;27;20114;-72
2023/04/28 08:32:49;;;;;;;42.28;24.10;;;;;;;12.70;100.00;100965.19;5102584;27;20032;-72
2023/04/28 08:35:16;;;;;;;35.03;21.98;;;;;;;12.85;100.00;100971.28;5085879;27;20043;-72
2023/04/28 08:37:42;;;;;;;38.70;23.73;;;;;;;13.07;100.00;100961.69;5076337;27;20666;-72
2023/04/28 08:40:09;;;;;;;36.78;23.50;;;;;;;13.07;100.00;100964.38;5096921;27;20039;-71
2023/04/28 08:42:36;;;;;;;39.20;23.30;;;;;;;12.90;100.00;100960.22;5084534;27;20036;-71
2023/04/28 08:45:04;;;;;;;34.38;22.13;;;;;;;13.01;100.00;100954.97;5087028;27;20188;-71
2023/04/28 08:47:44;;;;;;;32.20;22.15;;;;;;;13.09;100.00;100954.41;5102820;27;20028;-71
2023/04/28 08:50:14;;;;;;;36.88;21.98;;;;;;;13.00;100.00;100947.03;5100552;27;20040;-71
2023/04/28 08:52:41;;;;;;;33.05;23.27;;;;;;;13.34;100.00;100951.69;5105264;27;20584;-71
2023/04/28 08:55:09;;;;;;;38.03;23.45;;;;;;;12.98;100.00;100946.28;5094898;27;20055;-71
2023/04/28 08:57:43;;;;;;;33.67;21.92;;;;;;;13.18;100.00;100946.56;5092721;27;20040;-71
2023/04/28 09:00:09;;;;;;;39.72;22.17;;;;;;;13.42;100.00;100953.81;5093331;27;20032;-71
2023/04/28 09:02:37;;;;;;;33.03;21.77;;;;;;;13.67;100.00;100950.16;5076761;27;20040;-70
2023/04/28 09:05:07;;;;;;;35.08;21.38;;;;;;;13.71;100.00;100938.25;5089252;27;20079;-71
2023/04/28 09:07:34;;;;;;;32.92;22.10;;;;;;;13.68;100.00;100950.03;5095936;27;20031;-71
2023/04/28 09:10:20;;;;;;;35.40;22.02;;;;;;;13.99;100.00;100945.06;5085611;27;20032;-71
2023/04/28 09:12:48;;;;;;;36.78;21.73;;;;;;;13.70;100.00;100940.09;5092501;27;20044;-71
2023/04/28 09:15:33;;;;;;;37.95;23.30;;;;;;;14.10;100.00;100941.56;5093638;27;20040;-71
2023/04/28 09:17:59;;;;;;;36.38;23.13;;;;;;;13.70;100.00;100948.13;5095928;27;20114;-71
2023/04/28 09:20:27;;;;;;;30.80;21.40;;;;;;;13.84;100.00;100948.91;5098491;27;20039;-71
2023/04/28 09:22:55;;;;;;;34.97;23.13;;;;;;;14.13;100.00;100946.69;5082065;27;20035;-70
2023/04/28 09:25:22;;;;;;;36.00;23.73;;;;;;;14.21;100.00;100945.13;5097514;27;20043;-70
2023/04/28 09:27:51;;;;;;;36.83;21.88;;;;;;;14.00;100.00;100946.75;5080250;27;21008;-70
2023/04/28 09:30:17;;;;;;;37.13;21.95;;;;;;;14.27;100.00;100945.63;5092340;27;20028;-71
2023/04/28 09:32:43;;;;;;;40.90;23.70;;;;;;;13.86;100.00;100941.63;5065180;27;20413;-71
2023/04/28 09:35:09;;;;;;;36.05;21.30;;;;;;;13.96;100.00;100938.13;5097875;27;20097;-71
2023/04/28 09:37:36;;;;;;;33.63;20.77;;;;;;;13.98;100.00;100944.19;5080205;27;20105;-72
2023/04/28 09:40:10;;;;;;;34.63;23.13;;;;;;;14.26;100.00;100936.75;5075343;27;20032;-72
2023/04/28 09:42:41;;;;;;;31.58;22.75;;;;;;;14.13;100.00;100934.13;5074888;27;20455;-71
2023/04/28 09:45:10;;;;;;;36.67;21.88;;;;;;;14.49;100.00;100925.09;5098902;27;20044;-72
2023/04/28 09:47:45;;;;;;;30.73;22.65;;;;;;;14.85;100.00;100916.91;5092604;27;20035;-72
2023/04/28 09:50:13;;;;;;;34.88;21.20;;;;;;;14.32;100.00;100917.47;5096383;27;20044;-72
2023/04/28 09:52:44;;;;;;;31.85;21.33;;;;;;;14.94;100.00;100900.91;5097474;27;20047;-72
2023/04/28 09:55:11;;;;;;;33.33;20.65;;;;;;;15.25;100.00;100904.66;5094290;27;20036;-75
2023/04/28 09:57:38;;;;;;;32.58;22.02;;;;;;;15.76;100.00;100900.47;5099276;27;20027;-72
2023/04/28 10:00:07;;;;;;;33.03;20.30;;;;;;;15.51;100.00;100896.25;5066538;27;20039;-73
2023/04/28 10:02:36;;;;;;;25.48;19.40;;;;;;;15.01;100.00;100901.31;5077583;27;20067;-72
2023/04/28 10:05:02;;;;;;;27.35;19.85;;;;;;;15.65;100.00;100901.38;5078854;27;20579;-73
2023/04/28 10:07:29;;;;;;;30.55;19.92;;;;;;;15.70;100.00;100898.31;5096693;27;20042;-70
2023/04/28 10:09:55;;;;;;;28.38;18.65;;;;;;;15.76;100.00;100897.78;5071552;27;20044;-72
2023/04/28 10:12:22;;;;;;;25.85;18.95;;;;;;;16.03;100.00;100891.91;5061398;27;20662;-72
2023/04/28 10:14:49;;;;;;;26.55;18.63;;;;;;;15.80;100.00;100893.84;5073496;27;20040;-72
2023/04/28 10:17:17;;;;;;;30.10;19.60;;;;;;;16.08;100.00;100900.44;5082394;27;20060;-72
2023/04/28 10:19:45;;;;;;;26.80;18.65;;;;;;;16.13;100.00;100897.38;5071906;27;20039;-73
2023/04/28 10:22:33;;;;;;;27.92;18.88;;;;;;;16.24;100.00;100895.44;5094815;27;20020;-73
2023/04/28 10:25:11;;;;;;;31.55;19.30;;;;;;;16.48;100.00;100894.31;5071416;27;20040;-72
2023/04/28 10:27:45;;;;;;;31.13;20.83;;;;;;;15.99;100.00;100896.69;5093661;27;20333;-72
2023/04/28 10:30:20;;;;;;;29.95;20.33;;;;;;;15.76;100.00;100895.97;5091829;27;20094;-72
2023/04/28 10:49:55;;;;;;;32.03;22.73;;;;;;;15.40;100.00;100899.84;5074377;28;20614;-72
2023/04/28 10:52:39;;;;;;;37.70;23.45;;;;;;;15.18;100.00;100898.09;5062952;28;20390;-72
2023/04/28 10:55:32;;;;;;;29.30;23.05;;;;;;;15.52;100.00;100906.06;5075224;28;20103;-72
2023/04/28 10:58:17;;;;;;;33.05;23.55;;;;;;;15.55;100.00;100901.25;5073699;28;20132;-71
2023/04/28 11:00:52;;;;;;;34.08;24.30;;;;;;;15.29;100.00;100900.72;5068227;28;20058;-70
2023/04/28 11:03:36;;;;;;;30.85;24.70;;;;;;;15.58;100.00;100904.69;5080061;28;20126;-72
2023/04/28 11:06:28;;;;;;;36.25;25.50;;;;;;;15.31;100.00;100903.28;5080918;28;20036;-72
2023/04/28 11:09:23;;;;;;;35.90;25.17;;;;;;;15.29;100.00;100907.94;5069839;28;20044;-72
2023/04/28 11:12:10;;;;;;;39.95;27.13;;;;;;;15.50;100.00;100897.25;5063779;28;20043;-72
2023/04/28 11:14:42;;;;;;;39.20;26.35;;;;;;;15.40;100.00;100901.69;5075227;28;20033;-72
2023/04/28 11:17:11;;;;;;;41.28;27.80;;;;;;;15.46;100.00;100901.16;5066979;28;20063;-72
2023/04/28 11:19:42;;;;;;;35.42;26.88;;;;;;;15.61;100.00;100905.25;5085908;28;20115;-71
2023/04/28 11:22:16;;;;;;;39.05;26.77;;;;;;;15.72;100.00;100905.28;5076016;28;20127;-72
2023/04/28 11:25:02;;;;;;;37.55;26.75;;;;;;;15.66;100.00;100895.03;5078945;28;20048;-72
2023/04/28 11:27:33;;;;;;;41.60;29.60;;;;;;;15.42;100.00;100897.06;5079529;28;20178;-72
2023/04/28 11:30:00;;;;;;;42.13;27.42;;;;;;;15.60;100.00;100903.56;5074804;28;20068;-70
2023/04/28 11:32:27;;;;;;;39.50;27.20;;;;;;;15.69;100.00;100896.59;5074412;28;20299;-70